sensor_id;sensor_type;location;lat;lon;timestamp;P1;durP1;ratioP1;P2;durP2;ratioP2
34212;SDS011;20477;51.390;8.102;2023-01-10T00:00:49;24.98;;;8.23;;
34212;SDS011;20477;51.390;8.102;2023-01-10T00:03:22;22.00;;;6.65;;
34212;SDS011;20477;51.390;8.102;2023-01-10T00:05:50;30.60;;;9.18;;
34212;SDS011;20477;51.390;8.102;2023-01-10T00:08:19;23.38;;;6.68;;
34212;SDS011;20477;51.390;8.102;2023-01-10T00:10:47;20.02;;;8.93;;
34212;SDS011;20477;51.390;8.102;2023-01-10T00:13:15;27.83;;;8.40;;
34212;SDS011;20477;51.390;8.102;2023-01-10T00:15:49;23.13;;;8.73;;
34212;SDS011;20477;51.390;8.102;2023-01-10T00:18:18;28.55;;;10.60;;
34212;SDS011;20477;51.390;8.102;2023-01-10T00:20:48;30.10;;;10.13;;
34212;SDS011;20477;51.390;8.102;2023-01-10T00:23:17;25.38;;;9.05;;
34212;SDS011;20477;51.390;8.102;2023-01-10T00:25:50;27.35;;;10.23;;
34212;SDS011;20477;51.390;8.102;2023-01-10T00:28:18;22.92;;;9.85;;
34212;SDS011;20477;51.390;8.102;2023-01-10T00:30:47;31.85;;;9.70;;
34212;SDS011;20477;51.390;8.102;2023-01-10T00:33:25;27.88;;;9.60;;
34212;SDS011;20477;51.390;8.102;2023-01-10T00:35:55;25.20;;;9.05;;
34212;SDS011;20477;51.390;8.102;2023-01-10T00:38:24;29.45;;;8.88;;
34212;SDS011;20477;51.390;8.102;2023-01-10T00:40:52;25.67;;;9.52;;
34212;SDS011;20477;51.390;8.102;2023-01-10T00:43:20;23.95;;;8.63;;
34212;SDS011;20477;51.390;8.102;2023-01-10T00:46:06;30.20;;;9.85;;
34212;SDS011;20477;51.390;8.102;2023-01-10T00:48:34;24.75;;;9.38;;
34212;SDS011;20477;51.390;8.102;2023-01-10T00:51:04;20.58;;;8.98;;
34212;SDS011;20477;51.390;8.102;2023-01-10T00:53:32;30.17;;;10.25;;
34212;SDS011;20477;51.390;8.102;2023-01-10T00:56:03;28.35;;;10.57;;
34212;SDS011;20477;51.390;8.102;2023-01-10T00:58:32;22.30;;;9.65;;
34212;SDS011;20477;51.390;8.102;2023-01-10T01:01:00;35.25;;;10.02;;
34212;SDS011;20477;51.390;8.102;2023-01-10T01:03:28;30.65;;;11.00;;
34212;SDS011;20477;51.390;8.102;2023-01-10T01:05:57;22.40;;;10.32;;
34212;SDS011;20477;51.390;8.102;2023-01-10T01:08:32;31.90;;;9.80;;
34212;SDS011;20477;51.390;8.102;2023-01-10T01:11:00;27.42;;;8.93;;
34212;SDS011;20477;51.390;8.102;2023-01-10T01:13:29;30.95;;;9.65;;
34212;SDS011;20477;51.390;8.102;2023-01-10T01:15:57;27.58;;;8.63;;
34212;SDS011;20477;51.390;8.102;2023-01-10T01:18:26;32.92;;;9.05;;
34212;SDS011;20477;51.390;8.102;2023-01-10T01:20:56;29.52;;;9.90;;
34212;SDS011;20477;51.390;8.102;2023-01-10T01:23:29;27.42;;;8.65;;
34212;SDS011;20477;51.390;8.102;2023-01-10T01:26:00;21.40;;;8.00;;
34212;SDS011;20477;51.390;8.102;2023-01-10T01:28:28;29.38;;;8.07;;
34212;SDS011;20477;51.390;8.102;2023-01-10T01:30:56;25.80;;;8.15;;
34212;SDS011;20477;51.390;8.102;2023-01-10T01:33:25;22.05;;;7.65;;
34212;SDS011;20477;51.390;8.102;2023-01-10T01:35:53;26.15;;;9.38;;
34212;SDS011;20477;51.390;8.102;2023-01-10T01:38:21;25.73;;;8.13;;
34212;SDS011;20477;51.390;8.102;2023-01-10T01:40:51;20.35;;;7.80;;
34212;SDS011;20477;51.390;8.102;2023-01-10T01:43:21;18.60;;;7.45;;
34212;SDS011;20477;51.390;8.102;2023-01-10T01:45:51;27.23;;;9.60;;
34212;SDS011;20477;51.390;8.102;2023-01-10T01:48:25;20.50;;;8.82;;
34212;SDS011;20477;51.390;8.102;2023-01-10T01:50:57;22.27;;;8.20;;
34212;SDS011;20477;51.390;8.102;2023-01-10T01:53:32;30.58;;;9.80;;
34212;SDS011;20477;51.390;8.102;2023-01-10T01:56:04;27.58;;;9.48;;
34212;SDS011;20477;51.390;8.102;2023-01-10T01:58:38;41.78;;;9.30;;
34212;SDS011;20477;51.390;8.102;2023-01-10T02:01:10;25.85;;;8.07;;
34212;SDS011;20477;51.390;8.102;2023-01-10T02:03:39;29.15;;;9.32;;
34212;SDS011;20477;51.390;8.102;2023-01-10T02:06:08;21.95;;;8.52;;
34212;SDS011;20477;51.390;8.102;2023-01-10T02:08:37;28.65;;;9.13;;
34212;SDS011;20477;51.390;8.102;2023-01-10T02:11:08;22.48;;;8.35;;
34212;SDS011;20477;51.390;8.102;2023-01-10T02:13:38;17.25;;;7.43;;
34212;SDS011;20477;51.390;8.102;2023-01-10T02:16:07;18.38;;;6.65;;
34212;SDS011;20477;51.390;8.102;2023-01-10T02:18:36;24.45;;;7.20;;
34212;SDS011;20477;51.390;8.102;2023-01-10T02:21:17;22.27;;;7.45;;
34212;SDS011;20477;51.390;8.102;2023-01-10T02:24:10;23.50;;;6.85;;
34212;SDS011;20477;51.390;8.102;2023-01-10T02:27:11;26.42;;;6.90;;
34212;SDS011;20477;51.390;8.102;2023-01-10T02:30:01;22.92;;;5.30;;
34212;SDS011;20477;51.390;8.102;2023-01-10T02:33:02;26.85;;;6.50;;
34212;SDS011;20477;51.390;8.102;2023-01-10T02:35:41;30.80;;;6.97;;
34212;SDS011;20477;51.390;8.102;2023-01-10T02:38:20;21.45;;;6.35;;
34212;SDS011;20477;51.390;8.102;2023-01-10T02:41:01;23.48;;;7.05;;
34212;SDS011;20477;51.390;8.102;2023-01-10T02:43:36;18.75;;;6.35;;
34212;SDS011;20477;51.390;8.102;2023-01-10T02:46:09;21.83;;;6.22;;
34212;SDS011;20477;51.390;8.102;2023-01-10T02:48:41;19.08;;;5.70;;
34212;SDS011;20477;51.390;8.102;2023-01-10T02:51:13;20.73;;;6.80;;
34212;SDS011;20477;51.390;8.102;2023-01-10T02:53:46;16.55;;;5.95;;
34212;SDS011;20477;51.390;8.102;2023-01-10T02:56:23;23.77;;;5.63;;
34212;SDS011;20477;51.390;8.102;2023-01-10T02:59:16;19.27;;;5.72;;
34212;SDS011;20477;51.390;8.102;2023-01-10T03:02:09;21.73;;;6.32;;
34212;SDS011;20477;51.390;8.102;2023-01-10T03:04:44;20.70;;;5.05;;
34212;SDS011;20477;51.390;8.102;2023-01-10T03:07:19;16.40;;;5.40;;
34212;SDS011;20477;51.390;8.102;2023-01-10T03:09:53;21.40;;;4.88;;
34212;SDS011;20477;51.390;8.102;2023-01-10T03:12:24;16.63;;;5.90;;
34212;SDS011;20477;51.390;8.102;2023-01-10T03:14:55;19.67;;;6.05;;
34212;SDS011;20477;51.390;8.102;2023-01-10T03:17:24;16.50;;;4.85;;
34212;SDS011;20477;51.390;8.102;2023-01-10T03:19:55;22.60;;;5.38;;
34212;SDS011;20477;51.390;8.102;2023-01-10T03:22:28;23.00;;;4.95;;
34212;SDS011;20477;51.390;8.102;2023-01-10T03:24:58;21.52;;;5.85;;
34212;SDS011;20477;51.390;8.102;2023-01-10T03:27:28;23.88;;;4.50;;
34212;SDS011;20477;51.390;8.102;2023-01-10T03:30:04;25.33;;;5.47;;
34212;SDS011;20477;51.390;8.102;2023-01-10T03:32:36;14.90;;;3.88;;
34212;SDS011;20477;51.390;8.102;2023-01-10T03:35:06;23.85;;;5.45;;
34212;SDS011;20477;51.390;8.102;2023-01-10T03:37:37;15.88;;;4.32;;
34212;SDS011;20477;51.390;8.102;2023-01-10T03:40:14;22.42;;;5.32;;
34212;SDS011;20477;51.390;8.102;2023-01-10T03:42:46;22.08;;;4.22;;
34212;SDS011;20477;51.390;8.102;2023-01-10T03:45:35;27.50;;;4.55;;
34212;SDS011;20477;51.390;8.102;2023-01-10T03:50:36;17.95;;;3.72;;
34212;SDS011;20477;51.390;8.102;2023-01-10T03:53:05;17.65;;;4.85;;
34212;SDS011;20477;51.390;8.102;2023-01-10T03:55:34;21.65;;;4.30;;
34212;SDS011;20477;51.390;8.102;2023-01-10T03:58:03;25.05;;;5.38;;
34212;SDS011;20477;51.390;8.102;2023-01-10T04:00:32;9.43;;;2.38;;
34212;SDS011;20477;51.390;8.102;2023-01-10T04:03:00;22.55;;;3.55;;
34212;SDS011;20477;51.390;8.102;2023-01-10T04:05:29;21.17;;;4.18;;
34212;SDS011;20477;51.390;8.102;2023-01-10T04:07:58;19.10;;;4.35;;
34212;SDS011;20477;51.390;8.102;2023-01-10T04:10:27;12.20;;;3.65;;
34212;SDS011;20477;51.390;8.102;2023-01-10T04:12:57;19.08;;;5.10;;
34212;SDS011;20477;51.390;8.102;2023-01-10T04:15:27;9.85;;;3.92;;
34212;SDS011;20477;51.390;8.102;2023-01-10T04:17:57;16.33;;;3.85;;
34212;SDS011;20477;51.390;8.102;2023-01-10T04:23:47;17.20;;;3.63;;
34212;SDS011;20477;51.390;8.102;2023-01-10T04:26:16;17.67;;;3.92;;
34212;SDS011;20477;51.390;8.102;2023-01-10T04:28:44;19.30;;;4.07;;
34212;SDS011;20477;51.390;8.102;2023-01-10T04:31:12;20.50;;;4.72;;
34212;SDS011;20477;51.390;8.102;2023-01-10T04:33:43;23.17;;;4.97;;
34212;SDS011;20477;51.390;8.102;2023-01-10T04:36:11;18.02;;;4.43;;
34212;SDS011;20477;51.390;8.102;2023-01-10T04:38:40;21.05;;;4.55;;
34212;SDS011;20477;51.390;8.102;2023-01-10T04:41:10;22.55;;;5.13;;
34212;SDS011;20477;51.390;8.102;2023-01-10T04:43:38;29.33;;;6.47;;
34212;SDS011;20477;51.390;8.102;2023-01-10T04:46:06;23.55;;;4.50;;
34212;SDS011;20477;51.390;8.102;2023-01-10T04:48:34;22.25;;;4.65;;
34212;SDS011;20477;51.390;8.102;2023-01-10T04:51:03;17.30;;;4.35;;
34212;SDS011;20477;51.390;8.102;2023-01-10T04:53:31;20.85;;;5.85;;
34212;SDS011;20477;51.390;8.102;2023-01-10T04:56:03;21.88;;;5.15;;
34212;SDS011;20477;51.390;8.102;2023-01-10T05:01:07;27.48;;;5.68;;
34212;SDS011;20477;51.390;8.102;2023-01-10T05:03:36;18.98;;;5.68;;
34212;SDS011;20477;51.390;8.102;2023-01-10T05:06:04;27.10;;;6.15;;
34212;SDS011;20477;51.390;8.102;2023-01-10T05:08:33;15.40;;;5.72;;
34212;SDS011;20477;51.390;8.102;2023-01-10T05:11:01;25.98;;;7.28;;
34212;SDS011;20477;51.390;8.102;2023-01-10T05:13:29;18.88;;;5.25;;
34212;SDS011;20477;51.390;8.102;2023-01-10T05:16:01;19.33;;;6.70;;
34212;SDS011;20477;51.390;8.102;2023-01-10T05:18:30;25.67;;;8.05;;
34212;SDS011;20477;51.390;8.102;2023-01-10T05:20:59;58.72;;;8.20;;
34212;SDS011;20477;51.390;8.102;2023-01-10T05:23:28;25.92;;;7.22;;
34212;SDS011;20477;51.390;8.102;2023-01-10T05:25:56;16.88;;;5.70;;
34212;SDS011;20477;51.390;8.102;2023-01-10T05:28:24;20.33;;;6.53;;
34212;SDS011;20477;51.390;8.102;2023-01-10T05:30:53;28.65;;;6.82;;
34212;SDS011;20477;51.390;8.102;2023-01-10T05:33:22;19.90;;;6.55;;
34212;SDS011;20477;51.390;8.102;2023-01-10T05:35:51;32.03;;;7.43;;
34212;SDS011;20477;51.390;8.102;2023-01-10T05:38:19;18.33;;;6.47;;
34212;SDS011;20477;51.390;8.102;2023-01-10T05:40:47;24.05;;;5.45;;
34212;SDS011;20477;51.390;8.102;2023-01-10T05:43:20;26.15;;;7.45;;
34212;SDS011;20477;51.390;8.102;2023-01-10T05:45:49;20.63;;;6.28;;
34212;SDS011;20477;51.390;8.102;2023-01-10T05:48:17;22.85;;;6.03;;
34212;SDS011;20477;51.390;8.102;2023-01-10T05:50:47;21.73;;;6.40;;
34212;SDS011;20477;51.390;8.102;2023-01-10T05:53:16;24.15;;;6.18;;
34212;SDS011;20477;51.390;8.102;2023-01-10T05:55:50;22.63;;;6.28;;
34212;SDS011;20477;51.390;8.102;2023-01-10T05:58:19;24.83;;;5.88;;
34212;SDS011;20477;51.390;8.102;2023-01-10T06:00:48;24.73;;;6.15;;
34212;SDS011;20477;51.390;8.102;2023-01-10T06:03:16;23.30;;;6.03;;
34212;SDS011;20477;51.390;8.102;2023-01-10T06:05:45;25.67;;;6.25;;
34212;SDS011;20477;51.390;8.102;2023-01-10T06:08:14;23.35;;;6.03;;
34212;SDS011;20477;51.390;8.102;2023-01-10T06:10:43;22.00;;;5.38;;
34212;SDS011;20477;51.390;8.102;2023-01-10T06:13:11;23.05;;;6.28;;
34212;SDS011;20477;51.390;8.102;2023-01-10T06:15:39;24.27;;;5.80;;
34212;SDS011;20477;51.390;8.102;2023-01-10T06:18:08;22.60;;;6.15;;
34212;SDS011;20477;51.390;8.102;2023-01-10T06:20:37;25.25;;;6.82;;
34212;SDS011;20477;51.390;8.102;2023-01-10T06:23:07;22.75;;;5.85;;
34212;SDS011;20477;51.390;8.102;2023-01-10T06:25:36;25.63;;;7.35;;
34212;SDS011;20477;51.390;8.102;2023-01-10T06:28:07;23.27;;;7.05;;
34212;SDS011;20477;51.390;8.102;2023-01-10T06:30:35;24.98;;;7.15;;
34212;SDS011;20477;51.390;8.102;2023-01-10T06:33:04;24.02;;;7.43;;
34212;SDS011;20477;51.390;8.102;2023-01-10T06:35:34;26.45;;;7.82;;
34212;SDS011;20477;51.390;8.102;2023-01-10T06:38:02;28.08;;;7.00;;
34212;SDS011;20477;51.390;8.102;2023-01-10T06:40:32;24.15;;;7.43;;
34212;SDS011;20477;51.390;8.102;2023-01-10T06:43:00;27.88;;;8.02;;
34212;SDS011;20477;51.390;8.102;2023-01-10T06:45:29;30.55;;;7.97;;
34212;SDS011;20477;51.390;8.102;2023-01-10T06:47:57;31.10;;;8.73;;
34212;SDS011;20477;51.390;8.102;2023-01-10T06:50:25;34.03;;;9.43;;
34212;SDS011;20477;51.390;8.102;2023-01-10T06:52:55;32.53;;;9.93;;
34212;SDS011;20477;51.390;8.102;2023-01-10T06:55:23;25.50;;;9.25;;
34212;SDS011;20477;51.390;8.102;2023-01-10T06:58:07;37.85;;;10.57;;
34212;SDS011;20477;51.390;8.102;2023-01-10T07:00:35;29.70;;;8.88;;
34212;SDS011;20477;51.390;8.102;2023-01-10T07:03:04;32.80;;;9.32;;
34212;SDS011;20477;51.390;8.102;2023-01-10T07:05:33;36.03;;;9.38;;
34212;SDS011;20477;51.390;8.102;2023-01-10T07:08:01;36.10;;;9.07;;
34212;SDS011;20477;51.390;8.102;2023-01-10T07:10:29;28.00;;;9.88;;
34212;SDS011;20477;51.390;8.102;2023-01-10T07:12:59;36.95;;;11.02;;
34212;SDS011;20477;51.390;8.102;2023-01-10T07:15:27;28.65;;;9.90;;
34212;SDS011;20477;51.390;8.102;2023-01-10T07:17:56;43.70;;;10.80;;
34212;SDS011;20477;51.390;8.102;2023-01-10T07:20:25;40.53;;;10.35;;
34212;SDS011;20477;51.390;8.102;2023-01-10T07:22:54;43.17;;;9.63;;
34212;SDS011;20477;51.390;8.102;2023-01-10T07:25:24;42.83;;;11.45;;
34212;SDS011;20477;51.390;8.102;2023-01-10T07:27:53;36.05;;;11.77;;
34212;SDS011;20477;51.390;8.102;2023-01-10T07:30:23;40.47;;;10.85;;
34212;SDS011;20477;51.390;8.102;2023-01-10T07:32:52;44.70;;;10.75;;
34212;SDS011;20477;51.390;8.102;2023-01-10T07:35:21;35.38;;;10.20;;
34212;SDS011;20477;51.390;8.102;2023-01-10T07:37:49;44.30;;;10.27;;
34212;SDS011;20477;51.390;8.102;2023-01-10T07:40:17;30.08;;;9.48;;
34212;SDS011;20477;51.390;8.102;2023-01-10T07:42:46;38.65;;;10.57;;
34212;SDS011;20477;51.390;8.102;2023-01-10T07:45:14;38.67;;;10.13;;
34212;SDS011;20477;51.390;8.102;2023-01-10T07:47:44;34.90;;;10.05;;
34212;SDS011;20477;51.390;8.102;2023-01-10T07:50:12;36.70;;;10.35;;
34212;SDS011;20477;51.390;8.102;2023-01-10T07:52:43;39.83;;;10.77;;
34212;SDS011;20477;51.390;8.102;2023-01-10T07:55:11;39.50;;;10.27;;
34212;SDS011;20477;51.390;8.102;2023-01-10T07:57:40;40.08;;;9.90;;
34212;SDS011;20477;51.390;8.102;2023-01-10T08:00:09;44.70;;;10.32;;
34212;SDS011;20477;51.390;8.102;2023-01-10T08:02:38;35.28;;;9.93;;
34212;SDS011;20477;51.390;8.102;2023-01-10T08:05:08;43.17;;;10.25;;
34212;SDS011;20477;51.390;8.102;2023-01-10T08:07:36;31.80;;;10.15;;
34212;SDS011;20477;51.390;8.102;2023-01-10T08:10:05;30.42;;;9.77;;
34212;SDS011;20477;51.390;8.102;2023-01-10T08:12:35;36.22;;;9.27;;
34212;SDS011;20477;51.390;8.102;2023-01-10T08:15:04;47.95;;;11.10;;
34212;SDS011;20477;51.390;8.102;2023-01-10T08:17:33;30.95;;;10.07;;
34212;SDS011;20477;51.390;8.102;2023-01-10T08:20:01;50.63;;;10.68;;
34212;SDS011;20477;51.390;8.102;2023-01-10T08:22:32;39.45;;;11.00;;
34212;SDS011;20477;51.390;8.102;2023-01-10T08:25:02;42.03;;;11.20;;
34212;SDS011;20477;51.390;8.102;2023-01-10T08:27:30;46.38;;;10.77;;
34212;SDS011;20477;51.390;8.102;2023-01-10T08:30:00;28.83;;;11.02;;
34212;SDS011;20477;51.390;8.102;2023-01-10T08:32:28;34.30;;;11.07;;
34212;SDS011;20477;51.390;8.102;2023-01-10T08:34:56;37.30;;;11.27;;
34212;SDS011;20477;51.390;8.102;2023-01-10T08:37:25;33.33;;;11.38;;
34212;SDS011;20477;51.390;8.102;2023-01-10T08:39:55;36.00;;;10.80;;
34212;SDS011;20477;51.390;8.102;2023-01-10T08:42:23;46.72;;;11.32;;
34212;SDS011;20477;51.390;8.102;2023-01-10T08:44:51;37.72;;;11.57;;
34212;SDS011;20477;51.390;8.102;2023-01-10T08:47:20;27.13;;;9.73;;
34212;SDS011;20477;51.390;8.102;2023-01-10T08:49:48;41.65;;;11.70;;
34212;SDS011;20477;51.390;8.102;2023-01-10T08:52:16;47.75;;;11.75;;
34212;SDS011;20477;51.390;8.102;2023-01-10T08:54:45;43.67;;;11.40;;
34212;SDS011;20477;51.390;8.102;2023-01-10T08:57:14;31.10;;;9.65;;
34212;SDS011;20477;51.390;8.102;2023-01-10T08:59:43;44.08;;;12.35;;
34212;SDS011;20477;51.390;8.102;2023-01-10T09:02:11;26.83;;;9.77;;
34212;SDS011;20477;51.390;8.102;2023-01-10T09:04:41;42.95;;;11.52;;
34212;SDS011;20477;51.390;8.102;2023-01-10T09:07:09;40.80;;;11.18;;
34212;SDS011;20477;51.390;8.102;2023-01-10T09:09:37;41.50;;;12.38;;
34212;SDS011;20477;51.390;8.102;2023-01-10T09:12:06;39.25;;;10.73;;
34212;SDS011;20477;51.390;8.102;2023-01-10T09:14:49;41.08;;;11.32;;
34212;SDS011;20477;51.390;8.102;2023-01-10T09:17:18;46.03;;;11.98;;
34212;SDS011;20477;51.390;8.102;2023-01-10T09:19:46;44.28;;;9.98;;
34212;SDS011;20477;51.390;8.102;2023-01-10T09:22:15;42.55;;;9.57;;
34212;SDS011;20477;51.390;8.102;2023-01-10T09:24:44;57.08;;;10.95;;
34212;SDS011;20477;51.390;8.102;2023-01-10T09:27:12;35.13;;;9.48;;
34212;SDS011;20477;51.390;8.102;2023-01-10T09:29:40;41.75;;;10.90;;
34212;SDS011;20477;51.390;8.102;2023-01-10T09:32:10;52.38;;;10.30;;
34212;SDS011;20477;51.390;8.102;2023-01-10T09:34:38;30.23;;;10.48;;
34212;SDS011;20477;51.390;8.102;2023-01-10T09:37:06;46.35;;;11.05;;
34212;SDS011;20477;51.390;8.102;2023-01-10T09:39:35;48.00;;;11.45;;
34212;SDS011;20477;51.390;8.102;2023-01-10T09:42:05;48.90;;;10.77;;
34212;SDS011;20477;51.390;8.102;2023-01-10T09:44:45;40.60;;;11.18;;
34212;SDS011;20477;51.390;8.102;2023-01-10T09:47:20;46.85;;;11.05;;
34212;SDS011;20477;51.390;8.102;2023-01-10T09:49:57;42.75;;;11.32;;
34212;SDS011;20477;51.390;8.102;2023-01-10T09:52:34;49.70;;;11.70;;
34212;SDS011;20477;51.390;8.102;2023-01-10T09:55:09;38.53;;;9.88;;
34212;SDS011;20477;51.390;8.102;2023-01-10T09:57:49;32.83;;;9.63;;
34212;SDS011;20477;51.390;8.102;2023-01-10T10:00:20;33.13;;;8.50;;
34212;SDS011;20477;51.390;8.102;2023-01-10T10:02:53;47.97;;;10.60;;
34212;SDS011;20477;51.390;8.102;2023-01-10T10:05:23;41.63;;;9.35;;
34212;SDS011;20477;51.390;8.102;2023-01-10T10:07:54;41.22;;;9.70;;
34212;SDS011;20477;51.390;8.102;2023-01-10T10:10:24;37.13;;;9.63;;
34212;SDS011;20477;51.390;8.102;2023-01-10T10:12:57;36.30;;;8.95;;
34212;SDS011;20477;51.390;8.102;2023-01-10T10:15:42;39.28;;;9.20;;
34212;SDS011;20477;51.390;8.102;2023-01-10T10:18:19;37.58;;;9.13;;
34212;SDS011;20477;51.390;8.102;2023-01-10T10:20:55;37.00;;;10.00;;
34212;SDS011;20477;51.390;8.102;2023-01-10T10:26:10;44.03;;;9.75;;
34212;SDS011;20477;51.390;8.102;2023-01-10T10:31:55;40.90;;;8.45;;
34212;SDS011;20477;51.390;8.102;2023-01-10T10:34:34;40.42;;;10.80;;
34212;SDS011;20477;51.390;8.102;2023-01-10T10:39:42;46.47;;;9.07;;
34212;SDS011;20477;51.390;8.102;2023-01-10T10:42:14;43.60;;;8.68;;
34212;SDS011;20477;51.390;8.102;2023-01-10T10:44:45;42.15;;;8.05;;
34212;SDS011;20477;51.390;8.102;2023-01-10T10:47:17;35.47;;;7.90;;
34212;SDS011;20477;51.390;8.102;2023-01-10T10:49:50;37.85;;;8.07;;
34212;SDS011;20477;51.390;8.102;2023-01-10T10:52:24;32.00;;;7.25;;
34212;SDS011;20477;51.390;8.102;2023-01-10T10:54:53;29.02;;;6.97;;
34212;SDS011;20477;51.390;8.102;2023-01-10T10:57:23;38.10;;;7.22;;
34212;SDS011;20477;51.390;8.102;2023-01-10T10:59:52;34.58;;;7.63;;
34212;SDS011;20477;51.390;8.102;2023-01-10T11:02:23;25.90;;;6.63;;
34212;SDS011;20477;51.390;8.102;2023-01-10T11:04:55;34.38;;;7.10;;
34212;SDS011;20477;51.390;8.102;2023-01-10T11:07:28;38.15;;;8.50;;
34212;SDS011;20477;51.390;8.102;2023-01-10T11:10:00;34.87;;;8.83;;
34212;SDS011;20477;51.390;8.102;2023-01-10T11:12:43;36.88;;;7.43;;
34212;SDS011;20477;51.390;8.102;2023-01-10T11:18:09;27.08;;;7.65;;
34212;SDS011;20477;51.390;8.102;2023-01-10T11:20:48;26.55;;;6.53;;
34212;SDS011;20477;51.390;8.102;2023-01-10T11:23:21;35.97;;;7.25;;
34212;SDS011;20477;51.390;8.102;2023-01-10T11:26:05;30.17;;;6.47;;
34212;SDS011;20477;51.390;8.102;2023-01-10T11:28:35;30.25;;;5.60;;
34212;SDS011;20477;51.390;8.102;2023-01-10T11:31:04;34.70;;;6.13;;
34212;SDS011;20477;51.390;8.102;2023-01-10T11:33:33;30.55;;;5.78;;
34212;SDS011;20477;51.390;8.102;2023-01-10T11:36:04;35.83;;;6.28;;
34212;SDS011;20477;51.390;8.102;2023-01-10T11:38:35;29.83;;;6.72;;
34212;SDS011;20477;51.390;8.102;2023-01-10T11:41:05;36.17;;;5.72;;
34212;SDS011;20477;51.390;8.102;2023-01-10T11:43:48;24.48;;;5.18;;
34212;SDS011;20477;51.390;8.102;2023-01-10T11:46:17;33.00;;;5.07;;
34212;SDS011;20477;51.390;8.102;2023-01-10T11:48:48;26.05;;;5.75;;
34212;SDS011;20477;51.390;8.102;2023-01-10T11:51:35;29.33;;;5.43;;
34212;SDS011;20477;51.390;8.102;2023-01-10T11:54:05;28.38;;;5.32;;
34212;SDS011;20477;51.390;8.102;2023-01-10T11:56:37;18.85;;;4.90;;
34212;SDS011;20477;51.390;8.102;2023-01-10T11:59:07;32.58;;;5.72;;
34212;SDS011;20477;51.390;8.102;2023-01-10T12:01:38;24.75;;;4.57;;
34212;SDS011;20477;51.390;8.102;2023-01-10T12:04:12;26.05;;;4.75;;
34212;SDS011;20477;51.390;8.102;2023-01-10T12:06:43;34.05;;;5.53;;
34212;SDS011;20477;51.390;8.102;2023-01-10T12:09:30;21.47;;;3.83;;
34212;SDS011;20477;51.390;8.102;2023-01-10T12:12:00;40.67;;;4.95;;
34212;SDS011;20477;51.390;8.102;2023-01-10T12:14:29;26.75;;;5.93;;
34212;SDS011;20477;51.390;8.102;2023-01-10T12:16:58;33.95;;;5.78;;
34212;SDS011;20477;51.390;8.102;2023-01-10T12:19:27;24.25;;;4.68;;
34212;SDS011;20477;51.390;8.102;2023-01-10T12:21:58;29.10;;;5.88;;
34212;SDS011;20477;51.390;8.102;2023-01-10T12:26:58;25.85;;;4.45;;
34212;SDS011;20477;51.390;8.102;2023-01-10T12:29:30;19.77;;;5.28;;
34212;SDS011;20477;51.390;8.102;2023-01-10T12:32:02;28.83;;;5.40;;
34212;SDS011;20477;51.390;8.102;2023-01-10T12:34:33;22.00;;;4.63;;
34212;SDS011;20477;51.390;8.102;2023-01-10T12:37:11;24.35;;;4.88;;
34212;SDS011;20477;51.390;8.102;2023-01-10T12:39:43;25.00;;;4.28;;
34212;SDS011;20477;51.390;8.102;2023-01-10T12:42:16;23.08;;;3.72;;
34212;SDS011;20477;51.390;8.102;2023-01-10T12:45:10;25.60;;;4.68;;
34212;SDS011;20477;51.390;8.102;2023-01-10T12:47:43;31.67;;;5.63;;
34212;SDS011;20477;51.390;8.102;2023-01-10T12:50:20;30.58;;;5.75;;
34212;SDS011;20477;51.390;8.102;2023-01-10T12:52:52;25.08;;;4.95;;
34212;SDS011;20477;51.390;8.102;2023-01-10T12:55:25;15.60;;;3.95;;
34212;SDS011;20477;51.390;8.102;2023-01-10T12:57:57;31.33;;;4.85;;
34212;SDS011;20477;51.390;8.102;2023-01-10T13:00:27;29.27;;;4.97;;
34212;SDS011;20477;51.390;8.102;2023-01-10T13:03:09;20.30;;;4.07;;
34212;SDS011;20477;51.390;8.102;2023-01-10T13:05:39;24.77;;;4.00;;
34212;SDS011;20477;51.390;8.102;2023-01-10T13:08:11;21.30;;;5.40;;
34212;SDS011;20477;51.390;8.102;2023-01-10T13:10:41;24.23;;;4.38;;
34212;SDS011;20477;51.390;8.102;2023-01-10T13:13:14;22.95;;;4.53;;
34212;SDS011;20477;51.390;8.102;2023-01-10T13:15:47;19.80;;;4.57;;
34212;SDS011;20477;51.390;8.102;2023-01-10T13:18:18;20.63;;;3.58;;
34212;SDS011;20477;51.390;8.102;2023-01-10T13:21:00;32.20;;;4.53;;
34212;SDS011;20477;51.390;8.102;2023-01-10T13:23:32;24.27;;;4.57;;
34212;SDS011;20477;51.390;8.102;2023-01-10T13:26:02;21.95;;;4.22;;
34212;SDS011;20477;51.390;8.102;2023-01-10T13:28:35;25.58;;;4.38;;
34212;SDS011;20477;51.390;8.102;2023-01-10T13:31:05;22.35;;;4.95;;
34212;SDS011;20477;51.390;8.102;2023-01-10T13:33:37;23.42;;;4.07;;
34212;SDS011;20477;51.390;8.102;2023-01-10T13:36:16;28.08;;;5.18;;
34212;SDS011;20477;51.390;8.102;2023-01-10T13:38:48;23.15;;;5.15;;
34212;SDS011;20477;51.390;8.102;2023-01-10T13:41:18;22.50;;;4.30;;
34212;SDS011;20477;51.390;8.102;2023-01-10T13:44:06;22.40;;;4.38;;
34212;SDS011;20477;51.390;8.102;2023-01-10T13:46:37;23.17;;;5.55;;
34212;SDS011;20477;51.390;8.102;2023-01-10T13:49:22;28.05;;;4.68;;
34212;SDS011;20477;51.390;8.102;2023-01-10T13:58:01;22.83;;;4.93;;
34212;SDS011;20477;51.390;8.102;2023-01-10T14:00:41;23.40;;;4.68;;
34212;SDS011;20477;51.390;8.102;2023-01-10T14:03:35;22.90;;;4.97;;
34212;SDS011;20477;51.390;8.102;2023-01-10T14:06:05;30.58;;;5.35;;
34212;SDS011;20477;51.390;8.102;2023-01-10T14:08:37;24.27;;;5.18;;
34212;SDS011;20477;51.390;8.102;2023-01-10T14:11:08;30.42;;;3.90;;
34212;SDS011;20477;51.390;8.102;2023-01-10T14:13:38;36.65;;;5.30;;
34212;SDS011;20477;51.390;8.102;2023-01-10T14:16:25;23.92;;;4.53;;
34212;SDS011;20477;51.390;8.102;2023-01-10T14:18:58;24.42;;;5.43;;
34212;SDS011;20477;51.390;8.102;2023-01-10T14:21:28;22.10;;;4.45;;
34212;SDS011;20477;51.390;8.102;2023-01-10T14:23:57;25.20;;;3.92;;
34212;SDS011;20477;51.390;8.102;2023-01-10T14:26:28;17.75;;;3.20;;
34212;SDS011;20477;51.390;8.102;2023-01-10T14:28:59;29.42;;;4.80;;
34212;SDS011;20477;51.390;8.102;2023-01-10T14:31:29;23.00;;;4.20;;
34212;SDS011;20477;51.390;8.102;2023-01-10T14:33:57;22.63;;;4.75;;
34212;SDS011;20477;51.390;8.102;2023-01-10T14:36:32;21.67;;;4.05;;
34212;SDS011;20477;51.390;8.102;2023-01-10T14:39:13;25.13;;;4.30;;
34212;SDS011;20477;51.390;8.102;2023-01-10T14:41:44;18.45;;;3.80;;
34212;SDS011;20477;51.390;8.102;2023-01-10T14:44:14;26.45;;;5.82;;
34212;SDS011;20477;51.390;8.102;2023-01-10T14:46:45;20.15;;;4.43;;
34212;SDS011;20477;51.390;8.102;2023-01-10T14:49:21;14.27;;;4.15;;
34212;SDS011;20477;51.390;8.102;2023-01-10T14:51:51;20.02;;;4.80;;
34212;SDS011;20477;51.390;8.102;2023-01-10T14:54:26;21.65;;;4.13;;
34212;SDS011;20477;51.390;8.102;2023-01-10T14:56:57;24.85;;;4.45;;
34212;SDS011;20477;51.390;8.102;2023-01-10T14:59:26;27.40;;;4.32;;
34212;SDS011;20477;51.390;8.102;2023-01-10T15:01:55;18.23;;;4.80;;
34212;SDS011;20477;51.390;8.102;2023-01-10T15:04:25;27.85;;;5.68;;
34212;SDS011;20477;51.390;8.102;2023-01-10T15:06:55;19.48;;;4.05;;
34212;SDS011;20477;51.390;8.102;2023-01-10T15:09:26;17.80;;;3.60;;
34212;SDS011;20477;51.390;8.102;2023-01-10T15:11:55;27.92;;;4.85;;
34212;SDS011;20477;51.390;8.102;2023-01-10T15:14:26;25.07;;;3.97;;
34212;SDS011;20477;51.390;8.102;2023-01-10T15:16:57;27.67;;;6.25;;
34212;SDS011;20477;51.390;8.102;2023-01-10T15:19:28;20.27;;;3.70;;
34212;SDS011;20477;51.390;8.102;2023-01-10T15:22:02;17.25;;;3.63;;
34212;SDS011;20477;51.390;8.102;2023-01-10T15:24:31;21.05;;;4.47;;
34212;SDS011;20477;51.390;8.102;2023-01-10T15:27:02;18.00;;;4.38;;